Terminal Aerodrome Forecast
Issued by NWS

Home | Current Version | Previous Version | Graphics & Text | Print | Product List | Glossary Off
Versions: 1 2 3 4 5 6 7 8 9 10 11 12

774
FTUS42 KMHX 192320
TAFOAJ
TAF
KOAJ 192320Z 2000/2024 VRB04KT P6SM SKC
      TEMPO 2009/2012 3SM BR
     FM201200 01003KT P6SM SKC
      AMD LTD TO CLD VIS AND WIND=

USA.gov is the U.S. government's official web portal to all federal, state and local government web resources and services.